Time;durP1;ratioP1;P1;durP2;ratioP2;P2;SDS_P1;SDS_P2;PMS_P1;PMS_P2;Temp;Humidity;BMP_temperature;BMP_pressure;BME280_temperature;BME280_humidity;BME280_pressure;Samples;Min_cycle;Max_cycle;Signal;HPM_P1;HPM_P2
2021/07/26 00:00:57;;;;;;;11.60;10.20;;;;;;;28.34;46.58;100173.09;1769650;79;21537;-69
2021/07/26 00:03:23;;;;;;;11.12;10.10;;;;;;;28.35;46.78;100179.36;1769921;79;21037;-69
2021/07/26 00:05:56;;;;;;;10.55;9.40;;;;;;;28.35;46.76;100174.70;1765975;80;21043;-69
2021/07/26 00:08:22;;;;;;;11.43;10.30;;;;;;;28.36;46.79;100177.72;1766346;80;21046;-70
2021/07/26 00:11:04;;;;;;;11.03;9.95;;;;;;;28.35;46.64;100174.70;1756164;79;21139;-68
2021/07/26 00:13:30;;;;;;;11.88;10.65;;;;;;;28.35;46.60;100176.08;1762205;79;21060;-69
2021/07/26 00:16:01;;;;;;;11.53;10.43;;;;;;;28.34;46.70;100177.19;1769977;79;21057;-68
2021/07/26 00:18:27;;;;;;;10.70;9.53;;;;;;;28.35;46.71;100174.70;1760665;79;21065;-69
2021/07/26 00:20:56;;;;;;;11.33;10.23;;;;;;;28.34;46.64;100175.81;1782804;78;21127;-69
2021/07/26 00:23:22;;;;;;;10.45;9.55;;;;;;;28.34;46.56;100178.55;1788929;78;21110;-68
2021/07/26 00:25:49;;;;;;;11.10;10.00;;;;;;;28.34;46.54;100173.64;1799746;78;21009;-68
2021/07/26 00:28:16;;;;;;;11.00;10.00;;;;;;;28.33;46.65;100172.80;1815205;78;20996;-67
2021/07/26 00:30:42;;;;;;;11.12;10.03;;;;;;;28.33;46.50;100174.17;1792600;78;21033;-67
2021/07/26 00:33:42;;;;;;;10.95;9.80;;;;;;;28.33;46.54;100173.36;1777236;79;21002;-67
2021/07/26 00:36:04;;;;;;;11.33;10.13;;;;;;;28.34;46.63;100179.11;1729911;80;21087;-66
2021/07/26 00:38:31;;;;;;;10.98;9.98;;;;;;;28.32;46.72;100176.64;1778401;79;21509;-67
2021/07/26 00:40:57;;;;;;;11.08;9.98;;;;;;;28.31;46.50;100174.98;1760013;79;21049;-67
2021/07/26 00:43:23;;;;;;;11.40;10.32;;;;;;;28.32;46.44;100167.60;1773608;80;21096;-66
2021/07/26 00:45:51;;;;;;;11.48;10.28;;;;;;;28.31;46.44;100177.72;1781400;78;21000;-67
2021/07/26 00:48:17;;;;;;;10.98;9.98;;;;;;;28.32;46.43;100178.53;1788682;78;21117;-67
2021/07/26 00:50:44;;;;;;;11.20;9.88;;;;;;;28.32;46.54;100172.55;1802806;78;21525;-67
2021/07/26 00:53:11;;;;;;;10.90;9.80;;;;;;;28.31;46.32;100170.89;1790346;78;21500;-67
2021/07/26 00:55:40;;;;;;;10.55;9.48;;;;;;;28.31;46.25;100168.16;1777670;78;21068;-68
2021/07/26 00:58:06;;;;;;;10.78;9.78;;;;;;;28.30;46.26;100164.33;1763203;80;21037;-68
2021/07/26 01:00:32;;;;;;;10.45;9.38;;;;;;;28.30;46.33;100165.70;1766398;80;21735;-68
2021/07/26 01:02:59;;;;;;;12.03;10.93;;;;;;;28.30;46.42;100169.27;1774384;79;21073;-68
2021/07/26 01:05:25;;;;;;;10.28;9.38;;;;;;;28.31;46.55;100166.80;1737569;81;21482;-68
2021/07/26 01:07:52;;;;;;;10.93;9.45;;;;;;;28.30;46.42;100165.17;1769954;80;21002;-69
2021/07/26 01:10:18;;;;;;;12.68;10.23;;;;;;;28.30;46.21;100159.71;1772540;79;21119;-69
2021/07/26 01:12:44;;;;;;;11.57;10.05;;;;;;;28.31;46.27;100162.70;1773912;79;21970;-68
2021/07/26 01:15:12;;;;;;;10.43;9.43;;;;;;;28.30;46.21;100162.97;1780597;78;21060;-68
2021/07/26 01:18:20;;;;;;;11.40;10.30;;;;;;;28.30;46.16;100161.08;1800660;78;21033;-68
2021/07/26 01:20:51;;;;;;;10.70;9.70;;;;;;;28.30;46.05;100158.34;1693718;83;21072;-67
2021/07/26 01:23:20;;;;;;;9.88;8.98;;;;;;;28.28;46.18;100161.06;1769561;80;21520;-68
2021/07/26 01:25:46;;;;;;;11.45;10.28;;;;;;;28.27;46.09;100160.25;1788841;78;21166;-69
2021/07/26 01:28:14;;;;;;;10.53;9.53;;;;;;;28.27;45.93;100157.52;1789594;78;21062;-68
2021/07/26 01:30:44;;;;;;;11.53;10.18;;;;;;;28.27;45.89;100151.24;1796639;78;21060;-69
2021/07/26 01:33:11;;;;;;;10.95;9.83;;;;;;;28.26;45.83;100150.44;1782901;78;21020;-69
2021/07/26 01:35:39;;;;;;;10.32;9.33;;;;;;;28.26;45.63;100146.86;1776900;80;21033;-68
2021/07/26 01:38:08;;;;;;;11.05;10.00;;;;;;;28.24;45.54;100152.63;1773081;80;21218;-69
2021/07/26 01:40:37;;;;;;;10.85;9.80;;;;;;;28.23;45.54;100150.42;1778488;78;21616;-69
2021/07/26 01:43:04;;;;;;;10.63;9.53;;;;;;;28.23;45.49;100148.23;1766048;80;21047;-68
2021/07/26 01:45:34;;;;;;;10.48;9.48;;;;;;;28.22;45.47;100150.69;1781784;78;20990;-68
2021/07/26 01:48:29;;;;;;;11.33;10.23;;;;;;;28.20;45.48;100150.14;1811135;78;21108;-67
2021/07/26 01:51:01;;;;;;;10.10;8.80;;;;;;;28.19;45.50;100155.35;1778814;79;21027;-68
2021/07/26 01:53:31;;;;;;;11.95;9.75;;;;;;;28.16;45.58;100150.43;1784867;79;21942;-70
2021/07/26 01:55:58;;;;;;;10.10;8.90;;;;;;;28.15;45.66;100153.72;1791157;78;21075;-69
2021/07/26 01:58:24;;;;;;;11.50;10.03;;;;;;;28.11;45.76;100146.36;1788770;78;21453;-69
2021/07/26 02:00:52;;;;;;;11.03;9.95;;;;;;;28.10;45.84;100149.61;1765852;80;21052;-69
2021/07/26 02:03:18;;;;;;;10.35;9.35;;;;;;;28.08;45.92;100150.44;1800449;78;21073;-69
2021/07/26 02:05:45;;;;;;;11.15;9.75;;;;;;;28.08;46.01;100155.09;1779266;79;21093;-71
2021/07/26 02:08:11;;;;;;;9.73;8.83;;;;;;;28.07;46.08;100154.80;1772761;80;21038;-71
2021/07/26 02:10:38;;;;;;;9.38;8.48;;;;;;;28.04;46.21;100148.80;1775373;79;21077;-71
2021/07/26 02:13:04;;;;;;;10.32;9.43;;;;;;;28.03;46.21;100152.64;1774877;80;20982;-68
2021/07/26 02:15:31;;;;;;;10.88;9.90;;;;;;;28.02;46.15;100150.98;1777990;79;21653;-68
2021/07/26 02:17:57;;;;;;;9.85;8.88;;;;;;;28.03;46.12;100147.73;1773828;80;21030;-68
2021/07/26 02:20:25;;;;;;;10.43;9.10;;;;;;;28.02;46.06;100146.89;1774540;79;21065;-69
2021/07/26 02:22:51;;;;;;;10.60;9.60;;;;;;;28.02;45.98;100144.16;1773238;80;21021;-71
2021/07/26 02:25:19;;;;;;;10.30;9.33;;;;;;;28.02;45.96;100150.17;1754862;79;21088;-69
2021/07/26 02:27:45;;;;;;;11.05;10.05;;;;;;;28.01;46.04;100154.83;1775089;79;21254;-69
2021/07/26 02:30:13;;;;;;;10.23;9.35;;;;;;;28.03;46.21;100158.66;1781694;79;21088;-70
2021/07/26 02:32:39;;;;;;;10.20;9.20;;;;;;;28.03;46.15;100159.47;1769179;80;21086;-69
2021/07/26 02:35:08;;;;;;;10.23;9.30;;;;;;;28.04;46.05;100155.63;1789658;80;21044;-70
2021/07/26 02:37:34;;;;;;;12.90;9.70;;;;;;;28.06;46.00;100155.91;1805065;78;20996;-70
2021/07/26 02:40:03;;;;;;;10.53;9.43;;;;;;;28.07;45.98;100158.89;1792697;79;21040;-70
2021/07/26 02:42:30;;;;;;;10.72;9.55;;;;;;;28.08;45.90;100161.36;1789089;80;20997;-70
2021/07/26 02:44:56;;;;;;;10.20;9.20;;;;;;;28.08;45.90;100159.19;1788939;78;22076;-70
2021/07/26 02:47:23;;;;;;;9.63;8.73;;;;;;;28.09;45.88;100166.30;1792226;80;21058;-69
2021/07/26 02:49:49;;;;;;;10.38;9.38;;;;;;;28.09;45.80;100159.47;1786295;78;21024;-71
2021/07/26 02:52:16;;;;;;;9.95;9.05;;;;;;;28.10;45.80;100169.28;1787307;78;21127;-70
2021/07/26 02:54:42;;;;;;;10.28;9.33;;;;;;;28.11;45.83;100170.94;1797416;78;21532;-71
2021/07/26 02:57:08;;;;;;;9.90;8.90;;;;;;;28.12;45.59;100170.64;1789695;79;21032;-69
2021/07/26 02:59:36;;;;;;;10.20;9.30;;;;;;;28.12;45.47;100172.00;1771921;79;21077;-69
2021/07/26 03:02:04;;;;;;;10.68;9.68;;;;;;;28.11;45.23;100170.38;1785557;80;21020;-69
2021/07/26 03:04:31;;;;;;;10.18;9.18;;;;;;;28.11;45.24;100172.30;1770661;79;21168;-68
2021/07/26 03:06:58;;;;;;;9.98;9.08;;;;;;;28.10;45.31;100170.66;1795026;79;21028;-68
2021/07/26 03:09:24;;;;;;;9.43;8.45;;;;;;;28.09;45.10;100172.57;1778104;80;21469;-67
2021/07/26 03:11:51;;;;;;;9.75;8.65;;;;;;;28.09;45.15;100169.03;1765921;78;21044;-68
2021/07/26 03:14:18;;;;;;;9.95;8.65;;;;;;;28.10;45.20;100172.83;1795248;79;21068;-68
2021/07/26 03:16:44;;;;;;;9.50;8.60;;;;;;;28.10;45.21;100168.73;1752122;80;21145;-68
2021/07/26 03:19:11;;;;;;;11.05;9.03;;;;;;;28.11;45.15;100172.30;1777003;78;21052;-69
2021/07/26 03:21:38;;;;;;;10.35;9.20;;;;;;;28.11;45.03;100167.66;1780709;78;20976;-68
2021/07/26 03:24:06;;;;;;;10.18;9.25;;;;;;;28.11;44.84;100169.57;1731032;79;21013;-68
2021/07/26 03:26:32;;;;;;;11.12;9.33;;;;;;;28.09;44.83;100167.66;1752437;79;21076;-69
2021/07/26 03:28:58;;;;;;;10.13;9.13;;;;;;;28.08;44.84;100179.11;1780251;79;21865;-69
2021/07/26 03:31:25;;;;;;;10.18;9.28;;;;;;;28.07;45.02;100174.76;1782882;79;21534;-69
2021/07/26 03:36:17;;;;;;;10.15;8.75;;;;;;;28.10;45.24;100172.83;1887895;75;23026;-69
2021/07/26 03:38:44;;;;;;;9.43;8.63;;;;;;;28.00;45.36;100176.37;1859073;77;20917;-70
2021/07/26 03:41:10;;;;;;;9.85;8.95;;;;;;;28.01;45.40;100179.40;1852258;77;21095;-69
2021/07/26 03:43:37;;;;;;;10.70;9.60;;;;;;;28.01;45.47;100183.50;1837107;76;20899;-69
2021/07/26 03:46:03;;;;;;;9.70;8.78;;;;;;;28.01;45.57;100184.86;1788902;80;21065;-69
2021/07/26 03:48:29;;;;;;;11.53;10.32;;;;;;;28.01;45.61;100179.95;1802530;78;21153;-69
2021/07/26 03:50:56;;;;;;;11.70;10.30;;;;;;;28.00;45.72;100185.94;1775673;78;21035;-71
2021/07/26 03:53:22;;;;;;;10.68;9.43;;;;;;;28.00;45.78;100184.57;1785091;78;21109;-71
2021/07/26 03:55:49;;;;;;;10.40;9.35;;;;;;;28.00;45.84;100190.03;1816080;78;21021;-72
2021/07/26 03:58:15;;;;;;;10.40;9.40;;;;;;;28.01;45.92;100194.97;1816698;78;21017;-71
2021/07/26 04:00:41;;;;;;;10.82;9.83;;;;;;;28.00;46.00;100192.77;1786592;78;21108;-71
2021/07/26 04:03:14;;;;;;;10.40;9.50;;;;;;;28.01;46.11;100194.42;1804671;78;20978;-72
2021/07/26 04:08:25;;;;;;;10.08;9.03;;;;;;;28.02;46.02;100195.23;1772181;79;21045;-71
2021/07/26 04:11:00;;;;;;;10.93;9.13;;;;;;;28.02;46.04;100196.04;1815743;78;21115;-72
2021/07/26 04:13:19;;;;;;;10.80;9.35;;;;;;;28.03;46.22;100197.69;1808749;78;21013;-71
2021/07/26 04:15:49;;;;;;;14.00;12.50;;;;;;;28.06;46.29;100202.33;1802548;78;21009;-72
2021/07/26 04:18:15;;;;;;;11.18;10.18;;;;;;;28.07;46.45;100202.06;1769327;79;21538;-73
2021/07/26 04:20:42;;;;;;;10.95;9.93;;;;;;;28.08;46.57;100201.52;1761620;79;21018;-72
2021/07/26 04:23:09;;;;;;;10.90;9.90;;;;;;;28.08;46.65;100195.49;1775594;80;21070;-71
2021/07/26 04:25:36;;;;;;;11.30;10.20;;;;;;;28.10;46.66;100202.87;1790283;79;21029;-72
2021/07/26 04:28:03;;;;;;;10.50;9.50;;;;;;;28.12;46.45;100202.59;1782481;79;22211;-72
2021/07/26 04:30:30;;;;;;;10.75;9.60;;;;;;;28.15;46.33;100201.51;1783061;79;21073;-72
2021/07/26 04:32:56;;;;;;;11.10;10.10;;;;;;;28.16;46.31;100194.97;1772555;79;21525;-71
2021/07/26 04:35:22;;;;;;;11.40;10.30;;;;;;;28.19;46.30;100196.33;1798818;79;21017;-73
2021/07/26 04:37:49;;;;;;;11.22;10.00;;;;;;;28.20;46.29;100198.78;1791029;79;21577;-71
2021/07/26 04:40:15;;;;;;;10.70;9.78;;;;;;;28.22;46.24;100194.39;1794382;79;21017;-72
2021/07/26 04:42:42;;;;;;;11.90;10.75;;;;;;;28.23;46.21;100198.77;1769548;80;21810;-72
2021/07/26 04:45:11;;;;;;;11.30;10.20;;;;;;;28.25;46.07;100197.95;1771872;79;20993;-71
2021/07/26 04:47:38;;;;;;;10.88;9.85;;;;;;;28.27;46.01;100194.95;1791146;79;21001;-73
2021/07/26 04:50:06;;;;;;;11.57;10.53;;;;;;;28.28;46.02;100202.87;1787493;79;21946;-72
2021/07/26 04:52:33;;;;;;;11.75;9.78;;;;;;;28.30;46.08;100197.95;1791661;79;21064;-72
2021/07/26 04:55:00;;;;;;;11.05;9.95;;;;;;;28.33;46.00;100202.04;1777560;79;21070;-70
2021/07/26 04:57:26;;;;;;;10.63;9.30;;;;;;;28.34;45.92;100194.94;1764018;80;21097;-69
2021/07/26 04:59:53;;;;;;;13.00;10.38;;;;;;;28.36;45.93;100197.41;1778124;79;21046;-70
2021/07/26 05:02:19;;;;;;;13.43;10.20;;;;;;;28.38;45.92;100194.66;1785539;80;21033;-69
2021/07/26 05:04:46;;;;;;;12.45;9.85;;;;;;;28.39;45.89;100192.18;1801817;78;21056;-69
2021/07/26 05:07:12;;;;;;;10.95;9.88;;;;;;;28.41;45.88;100190.55;1798608;78;21756;-69
2021/07/26 05:09:40;;;;;;;12.18;10.32;;;;;;;28.42;45.79;100194.38;1782809;78;21036;-69
2021/07/26 05:12:12;;;;;;;10.60;9.50;;;;;;;28.44;45.84;100191.38;1793684;79;20993;-69
2021/07/26 05:14:36;;;;;;;11.33;10.23;;;;;;;28.45;45.74;100183.43;1781938;79;21544;-69
2021/07/26 05:17:03;;;;;;;10.65;9.35;;;;;;;28.47;45.77;100182.61;1780811;79;21032;-69
2021/07/26 05:19:29;;;;;;;11.25;10.05;;;;;;;28.48;45.79;100177.98;1782083;79;21104;-69
2021/07/26 05:21:56;;;;;;;11.88;10.53;;;;;;;28.50;45.68;100184.80;1783973;79;21048;-70
2021/07/26 05:24:24;;;;;;;11.12;9.95;;;;;;;28.53;45.59;100186.17;1789156;79;20997;-69
2021/07/26 05:27:02;;;;;;;15.32;10.28;;;;;;;28.54;45.67;100182.36;1781324;78;21045;-69
2021/07/26 05:29:29;;;;;;;12.37;9.75;;;;;;;28.55;45.77;100190.30;1777411;79;21100;-71
2021/07/26 05:31:58;;;;;;;11.53;10.32;;;;;;;28.57;45.73;100181.82;1791140;79;21114;-70
2021/07/26 05:34:24;;;;;;;11.18;10.08;;;;;;;28.57;45.44;100177.16;1774718;79;21080;-70
2021/07/26 05:36:51;;;;;;;10.78;9.68;;;;;;;28.58;45.41;100174.69;1787858;79;21023;-70
2021/07/26 05:39:17;;;;;;;10.50;9.45;;;;;;;28.60;45.55;100178.52;1795685;79;21556;-70
2021/07/26 05:41:44;;;;;;;10.68;9.68;;;;;;;28.60;45.09;100179.33;1785135;79;21087;-70
2021/07/26 05:44:11;;;;;;;10.50;9.43;;;;;;;28.61;44.84;100186.44;1790575;78;21099;-70
2021/07/26 05:46:39;;;;;;;11.25;9.80;;;;;;;28.61;44.45;100182.90;1783278;79;21025;-69
2021/07/26 05:49:05;;;;;;;11.90;10.65;;;;;;;28.61;44.41;100189.73;1784752;79;21423;-69
2021/07/26 05:51:32;;;;;;;11.83;10.68;;;;;;;28.62;44.55;100184.52;1809524;79;21036;-70
2021/07/26 05:53:58;;;;;;;11.30;9.55;;;;;;;28.63;44.61;100183.44;1807986;79;21052;-70
2021/07/26 05:56:24;;;;;;;13.62;10.48;;;;;;;28.66;44.56;100183.42;1808483;79;21703;-71
2021/07/26 05:58:51;;;;;;;13.38;9.93;;;;;;;28.67;44.44;100184.52;1809501;79;21139;-69
2021/07/26 06:01:46;;;;;;;11.05;9.95;;;;;;;28.68;44.26;100187.50;1799655;79;21117;-69
2021/07/26 06:04:04;;;;;;;10.78;9.63;;;;;;;28.70;44.16;100192.70;1760395;80;21065;-70
2021/07/26 06:06:30;;;;;;;11.10;10.00;;;;;;;28.71;44.34;100195.16;1808823;79;21021;-69
2021/07/26 06:08:57;;;;;;;10.88;9.80;;;;;;;28.72;44.40;100193.23;1802064;79;21092;-71
2021/07/26 06:11:23;;;;;;;13.83;10.30;;;;;;;28.74;44.76;100192.41;1808152;79;21022;-72
2021/07/26 06:13:50;;;;;;;10.80;9.58;;;;;;;28.76;44.52;100197.05;1815808;78;21505;-72
2021/07/26 06:16:18;;;;;;;13.18;10.72;;;;;;;28.75;44.35;100192.14;1808562;79;21089;-72
2021/07/26 06:18:45;;;;;;;10.40;9.45;;;;;;;28.77;44.41;100194.05;1800889;79;21091;-71
2021/07/26 06:21:11;;;;;;;10.48;9.43;;;;;;;28.77;44.11;100196.78;1811483;79;21062;-71
2021/07/26 06:23:37;;;;;;;10.13;8.80;;;;;;;28.78;44.29;100197.06;1809630;79;21072;-71
2021/07/26 06:26:05;;;;;;;14.05;9.65;;;;;;;28.80;44.21;100207.17;1811393;79;21057;-70
2021/07/26 06:28:32;;;;;;;10.45;9.43;;;;;;;28.81;44.03;100201.95;1809798;78;21111;-72
2021/07/26 06:31:03;;;;;;;10.20;9.20;;;;;;;28.82;43.66;100205.53;1805698;79;21065;-67
2021/07/26 06:33:30;;;;;;;9.70;8.73;;;;;;;28.83;43.77;100213.98;1812153;78;21045;-69
2021/07/26 06:35:57;;;;;;;10.28;8.98;;;;;;;28.83;44.10;100213.43;1810457;79;21093;-67
2021/07/26 06:38:23;;;;;;;9.93;9.00;;;;;;;28.85;44.38;100213.16;1813589;79;21579;-67
2021/07/26 06:40:50;;;;;;;12.58;10.32;;;;;;;28.86;44.30;100212.08;1800238;79;21018;-67
2021/07/26 06:43:17;;;;;;;11.00;9.88;;;;;;;28.86;43.83;100211.23;1794389;79;21044;-69
2021/07/26 06:45:44;;;;;;;16.23;12.40;;;;;;;28.88;44.01;100214.50;1784562;79;21859;-68
2021/07/26 06:48:10;;;;;;;15.63;13.22;;;;;;;28.88;43.65;100217.23;1779597;79;21073;-71
2021/07/26 06:50:39;;;;;;;19.15;13.45;;;;;;;28.89;43.90;100224.36;1794128;78;21029;-67
2021/07/26 06:53:07;;;;;;;20.80;14.40;;;;;;;28.91;44.29;100230.37;1793643;79;21052;-66
2021/07/26 06:55:38;;;;;;;15.53;12.95;;;;;;;28.92;44.30;100230.66;1799585;79;21037;-65
2021/07/26 06:58:05;;;;;;;12.37;10.85;;;;;;;28.93;44.15;100232.27;1785412;79;21789;-67
2021/07/26 07:00:32;;;;;;;13.48;11.85;;;;;;;28.95;44.28;100234.18;1814280;78;21085;-68
2021/07/26 07:02:58;;;;;;;13.03;11.75;;;;;;;28.96;44.28;100230.36;1807528;78;21061;-67
2021/07/26 07:05:24;;;;;;;13.72;12.33;;;;;;;28.98;44.50;100228.16;1810558;78;21475;-69
2021/07/26 07:07:51;;;;;;;17.35;11.68;;;;;;;28.99;44.55;100232.52;1813065;78;21088;-67
2021/07/26 07:10:17;;;;;;;12.82;11.00;;;;;;;29.00;44.70;100238.27;1789959;79;21123;-66
2021/07/26 07:12:44;;;;;;;11.63;10.53;;;;;;;29.02;44.74;100236.08;1796580;79;20979;-66
2021/07/26 07:15:18;;;;;;;16.97;11.45;;;;;;;29.02;44.80;100231.97;1800998;78;21525;-67
2021/07/26 07:17:41;;;;;;;12.68;11.35;;;;;;;29.04;44.94;100233.07;1797805;78;21105;-68
2021/07/26 07:20:09;;;;;;;11.80;10.38;;;;;;;29.04;44.65;100235.25;1807684;79;21073;-68
2021/07/26 07:22:35;;;;;;;14.43;11.05;;;;;;;29.06;44.53;100235.78;1812342;78;21104;-68
2021/07/26 07:25:02;;;;;;;11.85;10.72;;;;;;;29.07;44.78;100240.17;1806678;78;21069;-70
2021/07/26 07:27:28;;;;;;;12.43;11.12;;;;;;;29.08;44.89;100237.69;1805452;77;21025;-71
2021/07/26 07:29:55;;;;;;;12.07;10.78;;;;;;;29.09;44.92;100241.23;1806516;77;21057;-70
2021/07/26 07:32:23;;;;;;;11.93;10.70;;;;;;;29.10;44.97;100244.25;1811430;78;21135;-70
2021/07/26 07:34:49;;;;;;;11.70;10.08;;;;;;;29.11;44.78;100242.61;1810062;78;22276;-73
2021/07/26 07:37:16;;;;;;;12.47;10.60;;;;;;;29.11;44.73;100243.14;1776210;78;21058;-71
2021/07/26 07:39:42;;;;;;;14.00;10.45;;;;;;;29.12;44.72;100246.16;1797780;79;21103;-71
2021/07/26 07:42:09;;;;;;;11.93;10.25;;;;;;;29.13;44.67;100242.34;1798143;78;21101;-69
2021/07/26 07:44:35;;;;;;;11.35;10.25;;;;;;;29.14;44.42;100242.06;1796348;79;21124;-68
2021/07/26 07:47:02;;;;;;;11.00;9.85;;;;;;;29.15;44.56;100240.98;1790942;79;21105;-69
2021/07/26 07:49:30;;;;;;;10.35;9.28;;;;;;;29.16;44.74;100247.27;1815647;78;21029;-71
2021/07/26 07:51:57;;;;;;;10.98;9.70;;;;;;;29.16;44.33;100246.70;1818077;77;21092;-68
2021/07/26 07:54:23;;;;;;;11.80;10.45;;;;;;;29.14;44.09;100250.27;1791202;79;21369;-67
2021/07/26 07:56:51;;;;;;;10.45;9.40;;;;;;;29.18;44.24;100249.98;1813361;77;21176;-69
2021/07/26 07:59:18;;;;;;;11.00;9.98;;;;;;;29.18;44.12;100256.81;1791585;78;21457;-69
2021/07/26 08:01:45;;;;;;;10.85;9.45;;;;;;;29.19;44.17;100253.55;1815712;78;21061;-68
2021/07/26 08:04:11;;;;;;;10.25;9.08;;;;;;;29.20;44.20;100253.81;1814304;78;21057;-68
2021/07/26 08:06:41;;;;;;;10.55;9.58;;;;;;;29.20;44.08;100253.81;1818589;78;21061;-68
2021/07/26 08:09:08;;;;;;;10.65;9.63;;;;;;;29.20;43.80;100253.25;1782970;78;21111;-69
2021/07/26 08:11:34;;;;;;;11.35;9.73;;;;;;;29.21;43.86;100259.01;1816587;77;21180;-69
2021/07/26 08:14:00;;;;;;;13.60;9.45;;;;;;;29.22;43.82;100246.14;1809213;78;21556;-68
2021/07/26 08:16:26;;;;;;;11.90;9.70;;;;;;;29.21;43.85;100249.43;1814504;78;21096;-68
2021/07/26 08:18:53;;;;;;;10.15;9.23;;;;;;;29.23;43.84;100246.42;1808849;78;21165;-68
2021/07/26 08:21:21;;;;;;;10.40;9.40;;;;;;;29.23;43.57;100241.51;1815803;77;21509;-70
2021/07/26 08:23:47;;;;;;;10.95;8.93;;;;;;;29.26;43.65;100254.61;1780765;79;21581;-69
2021/07/26 08:26:14;;;;;;;10.20;9.23;;;;;;;29.26;43.57;100258.71;1810054;78;20993;-69
2021/07/26 08:28:40;;;;;;;9.55;8.58;;;;;;;29.26;43.37;100247.77;1780528;79;21073;-69
2021/07/26 08:31:07;;;;;;;10.00;9.08;;;;;;;29.28;43.46;100249.67;1817886;78;21646;-69
2021/07/26 08:33:33;;;;;;;9.65;8.75;;;;;;;29.28;43.38;100238.17;1814704;78;21060;-69
2021/07/26 08:36:01;;;;;;;10.30;9.40;;;;;;;29.29;43.37;100243.12;1786412;78;21128;-68
2021/07/26 08:38:27;;;;;;;9.50;8.60;;;;;;;29.30;43.41;100248.84;1787699;78;21009;-68
2021/07/26 08:40:53;;;;;;;9.58;8.58;;;;;;;29.32;43.31;100252.11;1785135;78;21021;-69
2021/07/26 08:43:23;;;;;;;9.70;8.73;;;;;;;29.32;43.31;100247.48;1785090;78;21423;-68
2021/07/26 08:45:48;;;;;;;9.30;8.50;;;;;;;29.34;43.14;100248.55;1782497;79;21009;-69
2021/07/26 08:48:15;;;;;;;9.85;8.68;;;;;;;29.33;43.01;100239.53;1784898;79;21115;-69
2021/07/26 08:50:42;;;;;;;9.28;7.78;;;;;;;29.33;41.13;100249.11;1782661;79;21092;-69
2021/07/26 08:53:09;;;;;;;8.65;6.90;;;;;;;29.33;39.16;100238.72;1779613;78;21053;-70
2021/07/26 08:55:36;;;;;;;8.70;8.00;;;;;;;29.33;39.69;100241.45;1782601;78;21018;-68
2021/07/26 08:58:05;;;;;;;11.80;7.95;;;;;;;29.34;39.32;100241.70;1781915;78;21482;-69
2021/07/26 09:00:31;;;;;;;11.90;7.92;;;;;;;29.34;38.50;100235.70;1779165;79;21989;-69
2021/07/26 09:02:58;;;;;;;12.15;7.42;;;;;;;29.34;38.19;100240.34;1783764;79;21097;-68
2021/07/26 09:05:24;;;;;;;10.90;7.65;;;;;;;29.34;38.42;100234.34;1778033;79;21092;-68
2021/07/26 09:07:51;;;;;;;10.18;7.33;;;;;;;29.36;37.90;100252.66;1780969;78;21037;-68
2021/07/26 09:10:22;;;;;;;15.13;9.33;;;;;;;29.38;38.11;100244.98;1782150;79;21095;-68
2021/07/26 09:12:51;;;;;;;8.43;7.63;;;;;;;29.40;37.98;100234.58;1783616;79;21928;-69
2021/07/26 09:15:24;;;;;;;10.25;8.13;;;;;;;29.43;38.91;100232.38;1781595;79;21824;-68
2021/07/26 09:17:50;;;;;;;8.70;7.83;;;;;;;29.44;39.70;100227.99;1785448;79;21037;-71
2021/07/26 09:20:18;;;;;;;9.83;7.90;;;;;;;29.46;40.07;100230.42;1778933;79;21144;-71
2021/07/26 09:22:47;;;;;;;8.78;7.87;;;;;;;29.48;40.43;100231.80;1779625;79;21583;-71
2021/07/26 09:25:27;;;;;;;11.38;7.67;;;;;;;29.49;40.72;100230.68;1784398;79;21490;-70
2021/07/26 09:28:14;;;;;;;9.28;8.38;;;;;;;29.51;40.76;100237.24;1781208;79;21059;-68
2021/07/26 09:30:52;;;;;;;9.18;7.40;;;;;;;29.52;39.53;100239.70;1777643;79;21200;-68
2021/07/26 09:33:27;;;;;;;8.38;7.58;;;;;;;29.51;37.79;100234.51;1775812;79;21109;-70
2021/07/26 09:36:14;;;;;;;8.93;8.08;;;;;;;29.51;38.31;100220.27;1776116;78;21082;-68
2021/07/26 09:38:56;;;;;;;8.43;7.72;;;;;;;29.53;38.55;100216.69;1785695;79;21079;-69
2021/07/26 09:41:45;;;;;;;9.05;8.18;;;;;;;29.55;39.40;100217.25;1783157;79;21037;-69
2021/07/26 09:44:12;;;;;;;8.83;7.83;;;;;;;29.56;39.53;100220.25;1772127;79;21074;-70
2021/07/26 09:46:39;;;;;;;8.75;7.95;;;;;;;29.56;39.48;100218.06;1782418;79;21049;-69
2021/07/26 09:49:17;;;;;;;8.55;7.83;;;;;;;29.57;39.22;100212.31;1776628;79;21510;-72
2021/07/26 09:52:02;;;;;;;8.95;8.05;;;;;;;29.56;39.04;100222.98;1781366;79;22417;-71
2021/07/26 09:54:45;;;;;;;10.48;8.08;;;;;;;29.57;38.77;100222.42;1778841;79;21036;-68
2021/07/26 09:57:20;;;;;;;32.35;13.45;;;;;;;29.57;38.57;100210.11;1780137;79;21524;-67
2021/07/26 09:59:47;;;;;;;14.47;9.68;;;;;;;29.27;87.90;100235.73;1785025;79;21026;-68
2021/07/26 10:02:19;;;;;;;13.15;8.50;;;;;;;29.27;52.67;100220.70;1786867;79;21129;-69
2021/07/26 10:04:47;;;;;;;12.93;7.85;;;;;;;29.16;45.84;100213.88;1790010;79;21128;-68
2021/07/26 10:07:15;;;;;;;8.88;8.00;;;;;;;29.14;43.14;100213.34;1782266;79;21013;-68
2021/07/26 10:09:43;;;;;;;8.63;7.83;;;;;;;29.16;44.00;100219.35;1781022;79;21059;-67
2021/07/26 10:12:19;;;;;;;11.35;8.63;;;;;;;29.19;41.59;100222.91;1777517;79;21565;-67
2021/07/26 10:14:47;;;;;;;10.48;8.58;;;;;;;29.25;42.33;100217.42;1783537;79;21120;-67
2021/07/26 10:17:14;;;;;;;9.55;7.65;;;;;;;29.29;41.75;100208.36;1757307;79;21148;-67
2021/07/26 10:19:41;;;;;;;9.33;8.43;;;;;;;29.35;40.19;100209.16;1778538;79;21137;-67
2021/07/26 10:22:11;;;;;;;12.93;11.70;;;;;;;29.40;39.25;100203.11;1782923;79;21569;-68
2021/07/26 10:24:48;;;;;;;14.13;12.80;;;;;;;29.49;39.83;100208.78;1757134;79;21116;-69
2021/07/26 10:27:18;;;;;;;13.38;12.10;;;;;;;29.55;40.01;100217.78;1785740;79;21053;-68
2021/07/26 10:29:56;;;;;;;13.32;11.80;;;;;;;29.59;39.25;100206.00;1783650;79;21123;-69
2021/07/26 10:32:34;;;;;;;14.93;13.18;;;;;;;29.66;39.26;100200.76;1783947;79;21056;-69
2021/07/26 10:35:05;;;;;;;15.83;14.30;;;;;;;29.69;39.08;100199.64;1781849;79;21075;-67
2021/07/26 10:37:50;;;;;;;15.88;14.58;;;;;;;29.72;38.56;100188.13;1784523;79;21087;-66
2021/07/26 10:40:24;;;;;;;15.70;14.10;;;;;;;29.74;38.38;100198.25;1782445;79;21093;-69
2021/07/26 10:42:52;;;;;;;13.85;12.18;;;;;;;29.77;38.40;100199.06;1782421;79;21120;-71
2021/07/26 10:45:39;;;;;;;12.40;11.20;;;;;;;29.79;38.20;100202.33;1780064;79;21021;-73
2021/07/26 10:48:30;;;;;;;12.30;11.10;;;;;;;29.84;38.05;100194.61;1782475;79;21055;-68
2021/07/26 10:51:00;;;;;;;9.80;8.90;;;;;;;29.87;37.68;100191.31;1785899;79;21579;-70
2021/07/26 10:53:41;;;;;;;12.68;10.70;;;;;;;29.90;37.27;100189.39;1783008;79;21005;-69
2021/07/26 10:56:11;;;;;;;9.08;8.28;;;;;;;29.93;36.95;100194.28;1779844;79;21142;-69
2021/07/26 10:58:49;;;;;;;10.55;8.28;;;;;;;29.97;36.42;100188.48;1781990;79;21048;-69
2021/07/26 11:01:27;;;;;;;8.98;7.87;;;;;;;30.04;36.61;100184.06;1784547;79;21072;-69
2021/07/26 11:03:55;;;;;;;9.48;8.40;;;;;;;30.11;36.31;100186.45;1780223;79;21100;-70
2021/07/26 11:06:45;;;;;;;9.75;8.73;;;;;;;30.18;36.54;100193.23;1783755;79;21138;-69
2021/07/26 11:09:35;;;;;;;9.55;8.65;;;;;;;30.24;36.81;100184.42;1781934;79;21817;-67
2021/07/26 11:12:05;;;;;;;9.23;8.43;;;;;;;30.31;37.03;100173.14;1784577;79;21028;-67
2021/07/26 11:14:32;;;;;;;9.33;8.28;;;;;;;30.37;37.23;100168.70;1783196;79;21057;-68
2021/07/26 11:17:02;;;;;;;9.80;8.45;;;;;;;30.42;36.97;100177.97;1783228;79;21064;-72
2021/07/26 11:19:46;;;;;;;9.58;8.15;;;;;;;30.48;36.90;100183.66;1781438;79;21058;-71
2021/07/26 11:22:21;;;;;;;8.45;7.70;;;;;;;30.54;36.94;100177.84;1782740;79;21136;-68
2021/07/26 11:24:51;;;;;;;7.95;7.22;;;;;;;30.60;36.89;100160.79;1781045;79;21108;-67
2021/07/26 11:27:35;;;;;;;8.88;8.05;;;;;;;30.65;36.44;100159.34;1778656;79;21110;-69
2021/07/26 11:30:01;;;;;;;9.00;7.80;;;;;;;30.72;36.55;100171.34;1782634;79;21082;-70